sensor_id;sensor_type;location;lat;lon;timestamp;P1;durP1;ratioP1;P2;durP2;ratioP2
40913;SDS011;26638;50.990;4.676;2024-03-02T07:14:06;2.17;;;0.60;;
40913;SDS011;26638;50.990;4.676;2024-03-02T07:16:32;2.90;;;0.70;;
40913;SDS011;26638;50.990;4.676;2024-03-02T07:18:59;5.67;;;0.73;;
40913;SDS011;26638;50.990;4.676;2024-03-02T07:21:26;2.33;;;0.57;;
40913;SDS011;26638;50.990;4.676;2024-03-02T07:23:52;2.85;;;0.60;;
40913;SDS011;26638;50.990;4.676;2024-03-02T07:26:18;2.83;;;0.60;;
40913;SDS011;26638;50.990;4.676;2024-03-02T07:28:45;2.88;;;0.60;;
40913;SDS011;26638;50.990;4.676;2024-03-02T07:31:12;4.43;;;0.70;;
40913;SDS011;26638;50.990;4.676;2024-03-02T07:33:38;3.72;;;0.82;;
40913;SDS011;26638;50.990;4.676;2024-03-02T07:36:04;5.25;;;1.00;;
40913;SDS011;26638;50.990;4.676;2024-03-02T07:38:30;4.67;;;1.40;;
40913;SDS011;26638;50.990;4.676;2024-03-02T07:40:57;3.38;;;1.33;;
40913;SDS011;26638;50.990;4.676;2024-03-02T07:43:22;2.43;;;1.10;;
40913;SDS011;26638;50.990;4.676;2024-03-02T07:45:48;5.10;;;1.40;;
40913;SDS011;26638;50.990;4.676;2024-03-02T07:48:14;3.92;;;1.45;;
40913;SDS011;26638;50.990;4.676;2024-03-02T07:50:40;7.72;;;1.52;;
40913;SDS011;26638;50.990;4.676;2024-03-02T07:53:06;5.83;;;1.30;;
40913;SDS011;26638;50.990;4.676;2024-03-02T07:55:33;5.43;;;1.50;;
40913;SDS011;26638;50.990;4.676;2024-03-02T07:57:59;5.47;;;1.60;;
40913;SDS011;26638;50.990;4.676;2024-03-02T08:00:25;3.63;;;1.27;;
40913;SDS011;26638;50.990;4.676;2024-03-02T08:02:52;2.80;;;1.40;;
40913;SDS011;26638;50.990;4.676;2024-03-02T08:05:18;5.00;;;1.33;;
40913;SDS011;26638;50.990;4.676;2024-03-02T08:07:46;3.17;;;1.40;;
40913;SDS011;26638;50.990;4.676;2024-03-02T08:10:13;3.72;;;1.27;;
40913;SDS011;26638;50.990;4.676;2024-03-02T08:12:38;7.88;;;1.38;;
40913;SDS011;26638;50.990;4.676;2024-03-02T08:15:04;7.75;;;1.33;;
40913;SDS011;26638;50.990;4.676;2024-03-02T08:17:30;4.22;;;1.30;;
40913;SDS011;26638;50.990;4.676;2024-03-02T08:19:56;9.07;;;1.50;;
40913;SDS011;26638;50.990;4.676;2024-03-02T08:22:23;9.95;;;1.48;;
40913;SDS011;26638;50.990;4.676;2024-03-02T08:24:50;3.70;;;1.10;;
40913;SDS011;26638;50.990;4.676;2024-03-02T08:27:16;6.20;;;1.30;;
40913;SDS011;26638;50.990;4.676;2024-03-02T08:29:42;4.97;;;1.40;;
40913;SDS011;26638;50.990;4.676;2024-03-02T08:32:07;4.53;;;1.35;;
40913;SDS011;26638;50.990;4.676;2024-03-02T08:34:33;9.47;;;1.47;;
40913;SDS011;26638;50.990;4.676;2024-03-02T08:37:01;5.00;;;1.45;;
40913;SDS011;26638;50.990;4.676;2024-03-02T08:39:27;8.32;;;1.77;;
40913;SDS011;26638;50.990;4.676;2024-03-02T08:41:53;6.88;;;1.48;;
40913;SDS011;26638;50.990;4.676;2024-03-02T08:44:19;6.67;;;1.40;;
40913;SDS011;26638;50.990;4.676;2024-03-02T08:46:45;5.55;;;1.45;;
40913;SDS011;26638;50.990;4.676;2024-03-02T08:49:11;7.60;;;1.70;;
40913;SDS011;26638;50.990;4.676;2024-03-02T08:51:37;6.38;;;1.92;;
40913;SDS011;26638;50.990;4.676;2024-03-02T08:54:02;5.27;;;1.63;;
40913;SDS011;26638;50.990;4.676;2024-03-02T08:56:29;8.87;;;1.47;;
40913;SDS011;26638;50.990;4.676;2024-03-02T08:58:55;6.90;;;1.48;;
40913;SDS011;26638;50.990;4.676;2024-03-02T09:01:21;7.75;;;1.67;;
40913;SDS011;26638;50.990;4.676;2024-03-02T09:03:47;9.07;;;1.45;;
40913;SDS011;26638;50.990;4.676;2024-03-02T09:06:14;10.68;;;1.73;;
40913;SDS011;26638;50.990;4.676;2024-03-02T09:08:42;9.52;;;1.90;;
40913;SDS011;26638;50.990;4.676;2024-03-02T09:11:08;10.80;;;2.28;;
40913;SDS011;26638;50.990;4.676;2024-03-02T09:13:35;8.95;;;2.15;;
40913;SDS011;26638;50.990;4.676;2024-03-02T09:16:02;7.75;;;2.00;;
40913;SDS011;26638;50.990;4.676;2024-03-02T09:18:30;8.90;;;1.80;;
40913;SDS011;26638;50.990;4.676;2024-03-02T09:20:59;11.82;;;1.95;;
40913;SDS011;26638;50.990;4.676;2024-03-02T09:23:25;9.85;;;2.00;;
40913;SDS011;26638;50.990;4.676;2024-03-02T09:25:50;9.73;;;1.93;;
40913;SDS011;26638;50.990;4.676;2024-03-02T09:28:16;7.60;;;1.45;;
40913;SDS011;26638;50.990;4.676;2024-03-02T09:30:42;8.82;;;1.77;;
40913;SDS011;26638;50.990;4.676;2024-03-02T09:33:07;6.93;;;1.80;;
40913;SDS011;26638;50.990;4.676;2024-03-02T09:35:33;6.53;;;2.00;;
40913;SDS011;26638;50.990;4.676;2024-03-02T09:37:59;7.37;;;1.90;;
40913;SDS011;26638;50.990;4.676;2024-03-02T09:40:24;6.47;;;1.75;;
40913;SDS011;26638;50.990;4.676;2024-03-02T09:42:50;9.47;;;1.67;;
40913;SDS011;26638;50.990;4.676;2024-03-02T09:45:24;7.72;;;1.90;;
40913;SDS011;26638;50.990;4.676;2024-03-02T09:47:50;6.90;;;1.50;;
40913;SDS011;26638;50.990;4.676;2024-03-02T09:50:16;5.90;;;1.30;;
40913;SDS011;26638;50.990;4.676;2024-03-02T09:52:42;7.70;;;1.57;;
40913;SDS011;26638;50.990;4.676;2024-03-02T09:55:08;4.25;;;1.55;;
40913;SDS011;26638;50.990;4.676;2024-03-02T09:57:34;5.72;;;1.40;;
40913;SDS011;26638;50.990;4.676;2024-03-02T10:00:00;5.60;;;1.43;;
40913;SDS011;26638;50.990;4.676;2024-03-02T10:02:26;5.25;;;1.38;;
40913;SDS011;26638;50.990;4.676;2024-03-02T10:04:52;6.67;;;1.77;;
40913;SDS011;26638;50.990;4.676;2024-03-02T10:07:18;4.00;;;1.38;;
40913;SDS011;26638;50.990;4.676;2024-03-02T10:09:45;6.30;;;1.55;;
40913;SDS011;26638;50.990;4.676;2024-03-02T10:12:14;6.20;;;1.80;;
40913;SDS011;26638;50.990;4.676;2024-03-02T10:14:41;5.38;;;1.30;;
40913;SDS011;26638;50.990;4.676;2024-03-02T10:17:08;4.43;;;1.60;;
40913;SDS011;26638;50.990;4.676;2024-03-02T10:19:36;4.45;;;1.40;;
40913;SDS011;26638;50.990;4.676;2024-03-02T10:22:02;5.30;;;1.30;;
40913;SDS011;26638;50.990;4.676;2024-03-02T10:24:40;4.70;;;1.38;;
40913;SDS011;26638;50.990;4.676;2024-03-02T10:29:41;4.70;;;1.40;;
40913;SDS011;26638;50.990;4.676;2024-03-02T10:32:10;4.03;;;1.23;;
40913;SDS011;26638;50.990;4.676;2024-03-02T10:34:40;4.90;;;1.38;;
40913;SDS011;26638;50.990;4.676;2024-03-02T10:37:06;3.93;;;1.30;;
40913;SDS011;26638;50.990;4.676;2024-03-02T10:39:33;3.85;;;1.30;;
40913;SDS011;26638;50.990;4.676;2024-03-02T10:42:00;5.13;;;1.20;;
40913;SDS011;26638;50.990;4.676;2024-03-02T10:44:28;2.95;;;1.38;;
40913;SDS011;26638;50.990;4.676;2024-03-02T10:46:54;3.55;;;1.20;;
40913;SDS011;26638;50.990;4.676;2024-03-02T10:49:21;3.90;;;1.30;;
40913;SDS011;26638;50.990;4.676;2024-03-02T10:51:48;3.70;;;1.20;;
40913;SDS011;26638;50.990;4.676;2024-03-02T10:54:14;4.15;;;1.17;;
40913;SDS011;26638;50.990;4.676;2024-03-02T10:56:40;3.20;;;1.20;;
40913;SDS011;26638;50.990;4.676;2024-03-02T11:01:59;4.53;;;1.10;;
40913;SDS011;26638;50.990;4.676;2024-03-02T11:04:27;3.43;;;1.40;;
40913;SDS011;26638;50.990;4.676;2024-03-02T11:07:02;4.87;;;1.30;;
40913;SDS011;26638;50.990;4.676;2024-03-02T11:09:28;4.35;;;1.30;;
40913;SDS011;26638;50.990;4.676;2024-03-02T11:12:02;3.67;;;1.27;;
40913;SDS011;26638;50.990;4.676;2024-03-02T11:14:34;4.70;;;1.52;;
40913;SDS011;26638;50.990;4.676;2024-03-02T11:17:02;3.53;;;1.30;;
40913;SDS011;26638;50.990;4.676;2024-03-02T11:19:33;4.70;;;1.33;;
40913;SDS011;26638;50.990;4.676;2024-03-02T11:22:02;3.47;;;1.10;;
40913;SDS011;26638;50.990;4.676;2024-03-02T11:24:29;3.70;;;1.20;;
40913;SDS011;26638;50.990;4.676;2024-03-02T11:27:01;3.65;;;1.17;;
40913;SDS011;26638;50.990;4.676;2024-03-02T11:32:02;2.50;;;1.02;;
40913;SDS011;26638;50.990;4.676;2024-03-02T11:34:32;3.40;;;1.30;;
40913;SDS011;26638;50.990;4.676;2024-03-02T11:37:01;3.38;;;1.20;;
40913;SDS011;26638;50.990;4.676;2024-03-02T11:39:28;3.33;;;1.10;;
40913;SDS011;26638;50.990;4.676;2024-03-02T11:41:55;3.25;;;1.38;;
40913;SDS011;26638;50.990;4.676;2024-03-02T11:44:21;3.63;;;1.20;;
40913;SDS011;26638;50.990;4.676;2024-03-02T11:47:02;3.38;;;1.15;;
40913;SDS011;26638;50.990;4.676;2024-03-02T11:49:41;2.85;;;1.17;;
40913;SDS011;26638;50.990;4.676;2024-03-02T11:52:10;3.65;;;1.27;;
40913;SDS011;26638;50.990;4.676;2024-03-02T11:54:40;3.30;;;1.00;;
40913;SDS011;26638;50.990;4.676;2024-03-02T11:57:11;2.90;;;1.15;;
40913;SDS011;26638;50.990;4.676;2024-03-02T11:59:37;4.28;;;1.00;;
40913;SDS011;26638;50.990;4.676;2024-03-02T12:02:03;3.85;;;1.40;;
40913;SDS011;26638;50.990;4.676;2024-03-02T12:04:29;3.23;;;1.10;;
40913;SDS011;26638;50.990;4.676;2024-03-02T12:06:56;4.40;;;1.40;;
40913;SDS011;26638;50.990;4.676;2024-03-02T12:09:29;3.13;;;1.33;;
40913;SDS011;26638;50.990;4.676;2024-03-02T12:12:04;2.80;;;1.20;;
40913;SDS011;26638;50.990;4.676;2024-03-02T12:14:34;3.38;;;1.15;;
40913;SDS011;26638;50.990;4.676;2024-03-02T12:17:01;4.22;;;1.10;;
40913;SDS011;26638;50.990;4.676;2024-03-02T12:19:28;3.25;;;1.02;;
40913;SDS011;26638;50.990;4.676;2024-03-02T12:21:55;2.42;;;1.20;;
40913;SDS011;26638;50.990;4.676;2024-03-02T12:24:21;4.35;;;1.10;;
40913;SDS011;26638;50.990;4.676;2024-03-02T12:26:51;3.60;;;1.10;;
40913;SDS011;26638;50.990;4.676;2024-03-02T12:29:20;3.35;;;1.30;;
40913;SDS011;26638;50.990;4.676;2024-03-02T12:31:49;3.92;;;1.20;;
40913;SDS011;26638;50.990;4.676;2024-03-02T12:34:17;2.63;;;1.13;;
40913;SDS011;26638;50.990;4.676;2024-03-02T12:36:43;2.50;;;1.02;;
40913;SDS011;26638;50.990;4.676;2024-03-02T12:39:12;3.08;;;0.90;;
40913;SDS011;26638;50.990;4.676;2024-03-02T12:41:38;2.75;;;1.00;;
40913;SDS011;26638;50.990;4.676;2024-03-02T12:44:05;3.80;;;1.13;;
40913;SDS011;26638;50.990;4.676;2024-03-02T12:46:33;2.60;;;0.90;;
40913;SDS011;26638;50.990;4.676;2024-03-02T12:49:21;2.75;;;1.08;;
40913;SDS011;26638;50.990;4.676;2024-03-02T12:51:47;4.53;;;1.00;;
40913;SDS011;26638;50.990;4.676;2024-03-02T12:54:17;2.60;;;1.00;;
40913;SDS011;26638;50.990;4.676;2024-03-02T12:56:43;2.15;;;1.00;;
40913;SDS011;26638;50.990;4.676;2024-03-02T12:59:18;4.22;;;1.20;;
40913;SDS011;26638;50.990;4.676;2024-03-02T13:01:52;2.40;;;1.00;;
40913;SDS011;26638;50.990;4.676;2024-03-02T13:04:25;3.08;;;1.10;;
40913;SDS011;26638;50.990;4.676;2024-03-02T13:06:52;2.67;;;1.02;;
40913;SDS011;26638;50.990;4.676;2024-03-02T13:09:18;2.38;;;1.10;;
40913;SDS011;26638;50.990;4.676;2024-03-02T13:11:44;2.40;;;0.87;;
40913;SDS011;26638;50.990;4.676;2024-03-02T13:14:10;2.75;;;1.08;;
40913;SDS011;26638;50.990;4.676;2024-03-02T13:16:42;3.72;;;0.93;;
40913;SDS011;26638;50.990;4.676;2024-03-02T13:19:08;3.20;;;1.00;;
40913;SDS011;26638;50.990;4.676;2024-03-02T13:21:34;4.03;;;0.98;;
40913;SDS011;26638;50.990;4.676;2024-03-02T13:24:00;1.55;;;0.75;;
40913;SDS011;26638;50.990;4.676;2024-03-02T13:26:26;3.13;;;1.20;;
40913;SDS011;26638;50.990;4.676;2024-03-02T13:28:52;1.80;;;0.75;;
40913;SDS011;26638;50.990;4.676;2024-03-02T13:31:18;2.50;;;1.00;;
40913;SDS011;26638;50.990;4.676;2024-03-02T13:33:43;3.10;;;1.08;;
40913;SDS011;26638;50.990;4.676;2024-03-02T13:36:09;2.10;;;0.88;;
40913;SDS011;26638;50.990;4.676;2024-03-02T13:38:35;2.80;;;1.00;;
40913;SDS011;26638;50.990;4.676;2024-03-02T13:41:01;2.58;;;0.85;;
40913;SDS011;26638;50.990;4.676;2024-03-02T13:43:27;2.17;;;1.00;;
40913;SDS011;26638;50.990;4.676;2024-03-02T13:45:56;3.20;;;0.82;;
40913;SDS011;26638;50.990;4.676;2024-03-02T13:48:23;2.70;;;0.90;;
40913;SDS011;26638;50.990;4.676;2024-03-02T13:50:51;2.00;;;0.77;;
40913;SDS011;26638;50.990;4.676;2024-03-02T13:53:17;2.45;;;1.00;;
40913;SDS011;26638;50.990;4.676;2024-03-02T13:55:43;2.97;;;1.00;;
40913;SDS011;26638;50.990;4.676;2024-03-02T13:58:09;2.20;;;1.00;;
40913;SDS011;26638;50.990;4.676;2024-03-02T14:00:35;2.67;;;1.20;;
40913;SDS011;26638;50.990;4.676;2024-03-02T14:03:02;2.10;;;0.70;;
40913;SDS011;26638;50.990;4.676;2024-03-02T14:05:28;3.05;;;0.90;;
40913;SDS011;26638;50.990;4.676;2024-03-02T14:07:54;2.03;;;0.90;;
40913;SDS011;26638;50.990;4.676;2024-03-02T14:10:20;2.03;;;0.80;;
40913;SDS011;26638;50.990;4.676;2024-03-02T14:12:47;2.27;;;0.97;;
40913;SDS011;26638;50.990;4.676;2024-03-02T14:15:14;1.77;;;0.90;;
40913;SDS011;26638;50.990;4.676;2024-03-02T14:17:40;2.10;;;0.88;;
40913;SDS011;26638;50.990;4.676;2024-03-02T14:20:06;2.17;;;0.82;;
40913;SDS011;26638;50.990;4.676;2024-03-02T14:22:32;1.57;;;0.80;;
40913;SDS011;26638;50.990;4.676;2024-03-02T14:24:59;1.95;;;0.80;;
40913;SDS011;26638;50.990;4.676;2024-03-02T14:27:24;1.83;;;0.70;;
40913;SDS011;26638;50.990;4.676;2024-03-02T14:29:51;2.20;;;1.10;;
40913;SDS011;26638;50.990;4.676;2024-03-02T14:32:16;2.47;;;0.90;;
40913;SDS011;26638;50.990;4.676;2024-03-02T14:34:42;2.28;;;0.88;;
40913;SDS011;26638;50.990;4.676;2024-03-02T14:37:07;2.13;;;0.77;;
40913;SDS011;26638;50.990;4.676;2024-03-02T14:39:33;3.17;;;1.00;;
40913;SDS011;26638;50.990;4.676;2024-03-02T14:42:00;1.75;;;0.90;;
40913;SDS011;26638;50.990;4.676;2024-03-02T14:44:26;2.40;;;0.80;;
40913;SDS011;26638;50.990;4.676;2024-03-02T14:46:52;2.03;;;0.90;;
40913;SDS011;26638;50.990;4.676;2024-03-02T14:49:18;1.67;;;0.70;;
40913;SDS011;26638;50.990;4.676;2024-03-02T14:51:43;3.40;;;0.83;;
40913;SDS011;26638;50.990;4.676;2024-03-02T14:54:09;3.78;;;1.15;;
40913;SDS011;26638;50.990;4.676;2024-03-02T14:56:35;1.80;;;0.80;;
40913;SDS011;26638;50.990;4.676;2024-03-02T14:59:00;2.03;;;0.90;;
40913;SDS011;26638;50.990;4.676;2024-03-02T15:01:26;1.90;;;0.85;;
40913;SDS011;26638;50.990;4.676;2024-03-02T15:03:51;1.77;;;0.80;;
40913;SDS011;26638;50.990;4.676;2024-03-02T15:06:17;1.50;;;0.80;;
40913;SDS011;26638;50.990;4.676;2024-03-02T15:08:43;1.43;;;0.70;;
40913;SDS011;26638;50.990;4.676;2024-03-02T15:11:11;1.92;;;0.70;;
40913;SDS011;26638;50.990;4.676;2024-03-02T15:13:37;1.52;;;0.77;;
40913;SDS011;26638;50.990;4.676;2024-03-02T15:16:04;1.85;;;0.80;;
40913;SDS011;26638;50.990;4.676;2024-03-02T15:18:29;3.03;;;1.00;;
40913;SDS011;26638;50.990;4.676;2024-03-02T15:20:55;1.98;;;0.73;;
40913;SDS011;26638;50.990;4.676;2024-03-02T15:23:21;1.77;;;0.80;;
40913;SDS011;26638;50.990;4.676;2024-03-02T15:25:47;1.85;;;0.70;;
40913;SDS011;26638;50.990;4.676;2024-03-02T15:28:12;2.10;;;0.90;;
40913;SDS011;26638;50.990;4.676;2024-03-02T15:30:38;3.67;;;0.93;;
40913;SDS011;26638;50.990;4.676;2024-03-02T15:33:04;2.05;;;0.70;;
40913;SDS011;26638;50.990;4.676;2024-03-02T15:35:30;2.10;;;0.80;;
40913;SDS011;26638;50.990;4.676;2024-03-02T15:37:56;2.67;;;0.90;;
40913;SDS011;26638;50.990;4.676;2024-03-02T15:40:21;1.40;;;0.70;;
40913;SDS011;26638;50.990;4.676;2024-03-02T15:42:47;2.05;;;0.70;;
40913;SDS011;26638;50.990;4.676;2024-03-02T15:45:13;3.13;;;0.90;;
40913;SDS011;26638;50.990;4.676;2024-03-02T15:47:38;1.70;;;0.90;;
40913;SDS011;26638;50.990;4.676;2024-03-02T15:50:05;1.42;;;0.80;;
40913;SDS011;26638;50.990;4.676;2024-03-02T15:52:31;2.65;;;0.90;;
40913;SDS011;26638;50.990;4.676;2024-03-02T15:54:57;2.65;;;0.90;;
40913;SDS011;26638;50.990;4.676;2024-03-02T15:57:23;1.77;;;0.80;;
40913;SDS011;26638;50.990;4.676;2024-03-02T15:59:48;1.48;;;0.80;;
40913;SDS011;26638;50.990;4.676;2024-03-02T16:02:17;1.80;;;0.80;;
40913;SDS011;26638;50.990;4.676;2024-03-02T16:04:43;3.00;;;0.70;;
40913;SDS011;26638;50.990;4.676;2024-03-02T16:07:08;1.40;;;0.73;;
